Time;durP1;ratioP1;P1;durP2;ratioP2;P2;SDS_P1;SDS_P2;PMS_P1;PMS_P2;Temp;Humidity;BMP_temperature;BMP_pressure;BME280_temperature;BME280_humidity;BME280_pressure;Samples;Min_cycle;Max_cycle;Signal;HPM_P1;HPM_P2
2022/10/24 00:02:20;;;;;;;7.05;2.00;;;14.70;99.90;;;;;;5047041;28;20036;-79
2022/10/24 00:04:46;;;;;;;5.15;2.10;;;14.70;99.90;;;;;;5048758;28;20494;-79
2022/10/24 00:07:11;;;;;;;8.57;2.25;;;14.70;99.90;;;;;;5051330;28;20391;-80
2022/10/24 00:09:37;;;;;;;5.20;1.92;;;14.60;99.90;;;;;;5049659;28;20036;-80
2022/10/24 00:12:04;;;;;;;5.97;1.75;;;14.70;99.90;;;;;;5049954;28;20042;-79
2022/10/24 00:14:30;;;;;;;5.13;1.90;;;14.70;99.90;;;;;;5050083;28;20402;-79
2022/10/24 00:16:56;;;;;;;3.53;1.65;;;14.70;99.90;;;;;;5050805;28;20033;-79
2022/10/24 00:19:21;;;;;;;6.07;2.03;;;14.70;99.90;;;;;;5049284;28;20095;-78
2022/10/24 00:21:47;;;;;;;9.07;1.80;;;14.60;99.90;;;;;;5049821;28;20063;-79
2022/10/24 00:24:13;;;;;;;5.95;1.63;;;14.60;99.90;;;;;;5052981;28;20116;-79
2022/10/24 00:26:39;;;;;;;8.80;1.73;;;14.60;99.90;;;;;;5053575;28;20465;-80
2022/10/24 00:29:05;;;;;;;5.70;1.73;;;14.70;99.90;;;;;;5053317;28;20036;-80
2022/10/24 00:31:30;;;;;;;5.28;1.67;;;14.60;99.90;;;;;;5054177;28;20083;-79
2022/10/24 00:33:58;;;;;;;7.57;1.77;;;14.70;99.90;;;;;;5052589;28;20051;-80
2022/10/24 00:36:25;;;;;;;6.95;1.80;;;14.60;99.90;;;;;;5054306;28;20037;-80
2022/10/24 00:38:51;;;;;;;5.22;1.60;;;14.70;99.90;;;;;;5053232;28;20090;-79
2022/10/24 00:41:30;;;;;;;4.32;1.58;;;14.60;99.90;;;;;;5052730;28;20124;-80
2022/10/24 00:44:21;;;;;;;6.35;1.92;;;14.60;99.90;;;;;;5063188;28;20039;-80
2022/10/24 00:46:58;;;;;;;9.30;1.65;;;14.60;99.90;;;;;;5054193;28;20433;-80
2022/10/24 00:49:42;;;;;;;4.05;1.70;;;14.60;99.90;;;;;;5054258;28;20037;-80
2022/10/24 00:52:08;;;;;;;7.03;1.50;;;14.60;99.90;;;;;;5035522;28;20033;-79
2022/10/24 00:54:37;;;;;;;6.55;1.80;;;14.60;99.90;;;;;;5050902;28;20047;-79
2022/10/24 00:57:25;;;;;;;3.50;1.30;;;14.60;99.90;;;;;;5053186;28;20037;-79
2022/10/24 00:59:56;;;;;;;6.63;1.45;;;14.60;99.90;;;;;;5053656;28;20155;-79
2022/10/24 01:02:22;;;;;;;5.15;1.38;;;14.60;99.90;;;;;;5017003;28;20526;-79
2022/10/24 01:04:48;;;;;;;2.90;1.30;;;14.60;99.90;;;;;;5042947;28;20045;-80
2022/10/24 01:07:18;;;;;;;3.45;1.48;;;14.60;99.90;;;;;;5036738;28;20033;-79
2022/10/24 01:10:07;;;;;;;6.85;1.58;;;14.70;99.90;;;;;;5036203;28;20041;-79
2022/10/24 01:12:51;;;;;;;3.88;1.38;;;14.60;99.90;;;;;;5051297;28;20418;-80
2022/10/24 01:15:46;;;;;;;3.50;1.30;;;14.60;99.90;;;;;;5032987;28;20072;-79
2022/10/24 01:18:19;;;;;;;3.60;1.27;;;14.50;99.90;;;;;;5049419;28;20589;-80
2022/10/24 01:20:52;;;;;;;7.53;1.63;;;14.50;99.90;;;;;;5050843;28;20049;-79
2022/10/24 01:23:48;;;;;;;4.20;1.47;;;14.50;99.90;;;;;;5053694;28;20271;-79
2022/10/24 01:26:47;;;;;;;5.00;1.67;;;14.50;99.90;;;;;;5048356;28;20064;-79
2022/10/24 01:29:24;;;;;;;4.93;1.63;;;14.50;99.90;;;;;;5053545;28;20037;-80
2022/10/24 01:32:30;;;;;;;7.00;1.80;;;14.50;99.90;;;;;;5053052;28;20040;-79
2022/10/24 01:35:06;;;;;;;5.00;1.38;;;14.60;99.90;;;;;;5042821;28;20060;-81
2022/10/24 01:37:40;;;;;;;7.18;1.48;;;14.60;99.90;;;;;;5052567;28;20063;-79
2022/10/24 01:40:16;;;;;;;3.80;1.40;;;14.70;99.90;;;;;;5052855;28;20044;-79
2022/10/24 01:42:44;;;;;;;8.05;1.70;;;14.60;99.90;;;;;;5051432;28;20044;-79
2022/10/24 01:45:14;;;;;;;7.20;2.00;;;14.70;99.90;;;;;;5034435;28;20078;-79
2022/10/24 01:47:45;;;;;;;7.78;2.00;;;14.70;99.90;;;;;;5052959;28;20424;-78
2022/10/24 01:50:13;;;;;;;4.97;2.20;;;14.70;99.90;;;;;;5052935;28;20139;-79
2022/10/24 01:52:42;;;;;;;4.68;1.98;;;14.70;99.90;;;;;;5035988;28;20037;-79
2022/10/24 01:55:08;;;;;;;3.85;2.08;;;14.80;99.90;;;;;;5051137;28;20079;-80
2022/10/24 01:57:34;;;;;;;5.70;1.70;;;14.90;99.90;;;;;;5052415;28;20043;-79
2022/10/24 02:00:00;;;;;;;5.93;2.20;;;14.90;99.90;;;;;;5052168;28;20491;-80
2022/10/24 02:02:40;;;;;;;6.32;2.10;;;15.00;99.90;;;;;;5051649;28;20135;-81
2022/10/24 02:05:43;;;;;;;7.57;1.95;;;15.00;99.90;;;;;;5052634;28;20040;-80
2022/10/24 02:08:17;;;;;;;4.65;1.88;;;15.00;99.90;;;;;;5013890;28;20514;-80
2022/10/24 02:10:52;;;;;;;6.18;2.20;;;15.00;99.90;;;;;;5052319;28;20187;-79
2022/10/24 02:13:33;;;;;;;7.85;2.10;;;15.00;99.90;;;;;;5036016;28;20048;-80
2022/10/24 02:16:01;;;;;;;5.47;2.00;;;15.00;99.90;;;;;;5052321;28;20142;-80
2022/10/24 02:18:29;;;;;;;9.60;2.70;;;15.00;99.90;;;;;;5052628;28;20033;-80
2022/10/24 02:21:05;;;;;;;5.88;1.92;;;15.00;99.90;;;;;;5048199;28;20037;-80
2022/10/24 02:23:42;;;;;;;10.27;2.25;;;15.00;99.90;;;;;;5051843;28;20029;-79
2022/10/24 02:26:15;;;;;;;7.20;2.00;;;15.00;99.90;;;;;;5050871;28;20045;-79
2022/10/24 02:28:46;;;;;;;5.27;2.23;;;15.00;99.90;;;;;;5051294;28;20037;-80
2022/10/24 02:31:16;;;;;;;4.70;2.13;;;15.00;99.90;;;;;;5046247;28;20279;-80
2022/10/24 02:33:44;;;;;;;6.32;2.20;;;15.00;99.90;;;;;;5051107;28;20455;-79
2022/10/24 02:36:14;;;;;;;6.18;1.92;;;15.00;99.90;;;;;;5052195;28;20043;-80
2022/10/24 02:38:43;;;;;;;8.10;2.28;;;15.10;99.90;;;;;;5051724;28;20048;-80
2022/10/24 02:41:13;;;;;;;5.57;2.10;;;15.10;99.90;;;;;;5050413;28;20128;-79
2022/10/24 02:43:41;;;;;;;8.50;2.20;;;15.20;99.90;;;;;;5052212;28;20189;-78
2022/10/24 02:46:09;;;;;;;6.32;2.30;;;15.20;99.90;;;;;;5050140;28;20410;-80
2022/10/24 02:48:41;;;;;;;6.22;2.38;;;15.20;99.90;;;;;;5051466;28;20502;-79
2022/10/24 02:51:08;;;;;;;5.60;1.85;;;15.20;99.90;;;;;;5050148;28;20116;-79
2022/10/24 02:53:35;;;;;;;8.85;1.88;;;15.20;99.90;;;;;;5050072;28;20041;-79
2022/10/24 02:56:02;;;;;;;8.13;2.25;;;15.10;99.90;;;;;;5032866;28;20086;-80
2022/10/24 02:58:27;;;;;;;7.78;2.20;;;15.10;99.90;;;;;;5035455;28;20055;-79
2022/10/24 03:00:53;;;;;;;6.15;2.17;;;15.10;99.90;;;;;;5049653;28;20041;-79
2022/10/24 03:03:18;;;;;;;7.47;2.20;;;15.20;99.90;;;;;;5051758;28;20072;-79
2022/10/24 03:05:44;;;;;;;6.70;1.98;;;15.10;99.90;;;;;;5049949;28;20040;-80
2022/10/24 03:08:11;;;;;;;6.90;2.00;;;15.10;99.90;;;;;;5051089;28;20036;-79
2022/10/24 03:10:37;;;;;;;5.47;1.83;;;15.10;99.90;;;;;;5051879;28;20116;-79
2022/10/24 03:13:02;;;;;;;6.25;1.90;;;15.20;99.90;;;;;;5050497;28;20037;-79
2022/10/24 03:15:28;;;;;;;5.78;1.80;;;15.20;99.90;;;;;;5051215;28;20040;-79
2022/10/24 03:17:53;;;;;;;6.32;2.17;;;15.10;99.90;;;;;;5048993;28;20151;-80
2022/10/24 03:20:19;;;;;;;6.60;1.95;;;15.20;99.90;;;;;;5046370;28;20037;-79
2022/10/24 03:22:44;;;;;;;8.77;2.00;;;15.20;99.90;;;;;;5034715;28;20041;-80
2022/10/24 03:25:10;;;;;;;7.13;1.83;;;15.20;99.90;;;;;;5046745;28;20039;-79
2022/10/24 03:27:36;;;;;;;8.70;2.15;;;15.20;99.90;;;;;;5033869;28;20037;-79
2022/10/24 03:30:02;;;;;;;5.65;1.95;;;15.20;99.90;;;;;;5048722;28;20041;-79
2022/10/24 03:32:28;;;;;;;6.10;2.05;;;15.20;99.90;;;;;;5050743;28;20042;-79
2022/10/24 03:34:54;;;;;;;7.88;1.85;;;15.10;99.90;;;;;;5050887;28;20110;-79
2022/10/24 03:37:19;;;;;;;3.95;1.80;;;15.10;99.90;;;;;;5049037;28;20506;-79
2022/10/24 03:39:45;;;;;;;5.68;1.90;;;15.10;99.90;;;;;;5033969;28;20037;-79
2022/10/24 03:42:11;;;;;;;9.63;2.28;;;15.00;99.90;;;;;;5034056;28;20033;-78
2022/10/24 03:44:36;;;;;;;4.57;1.65;;;15.10;99.90;;;;;;5047971;28;20048;-79
2022/10/24 03:47:02;;;;;;;6.75;2.10;;;15.10;99.90;;;;;;5050656;28;20510;-79
2022/10/24 03:49:27;;;;;;;7.13;2.08;;;15.10;99.90;;;;;;5049679;28;20524;-79
2022/10/24 03:51:53;;;;;;;7.70;2.10;;;15.10;99.90;;;;;;5050263;28;20044;-78
2022/10/24 03:54:18;;;;;;;8.00;2.10;;;15.10;99.90;;;;;;5050506;28;20525;-79
2022/10/24 03:56:46;;;;;;;6.40;2.00;;;15.20;99.90;;;;;;5049537;28;20037;-79
2022/10/24 03:59:12;;;;;;;5.55;2.05;;;15.20;99.90;;;;;;5053034;28;20068;-79
2022/10/24 04:01:38;;;;;;;7.35;2.15;;;15.10;99.90;;;;;;5054101;28;20466;-80
2022/10/24 04:04:03;;;;;;;4.97;2.10;;;15.20;99.90;;;;;;5054697;28;20048;-79
2022/10/24 04:06:29;;;;;;;7.00;3.05;;;15.10;99.90;;;;;;5054353;28;20041;-79
2022/10/24 04:08:55;;;;;;;6.38;2.15;;;15.20;99.90;;;;;;5051715;28;20615;-80
2022/10/24 04:11:22;;;;;;;6.22;2.20;;;15.20;99.90;;;;;;5049720;28;20076;-79
2022/10/24 04:13:47;;;;;;;6.22;2.10;;;15.20;99.90;;;;;;5037399;28;20041;-79
2022/10/24 04:16:13;;;;;;;8.52;2.20;;;15.10;99.90;;;;;;5054292;28;20482;-78
2022/10/24 04:18:38;;;;;;;4.55;2.13;;;15.10;99.90;;;;;;5051623;28;20142;-78
2022/10/24 04:21:04;;;;;;;7.45;2.10;;;15.00;99.90;;;;;;5052960;28;20174;-79
2022/10/24 04:23:34;;;;;;;5.90;2.17;;;15.00;99.90;;;;;;5053941;28;20068;-80
2022/10/24 04:26:00;;;;;;;7.40;2.60;;;15.00;99.90;;;;;;5054159;28;20045;-79
2022/10/24 04:28:28;;;;;;;6.95;2.35;;;14.90;99.90;;;;;;5052785;28;20045;-79
2022/10/24 04:30:56;;;;;;;7.68;2.22;;;14.90;99.90;;;;;;5051065;28;20041;-79
2022/10/24 04:33:21;;;;;;;6.70;2.20;;;14.80;99.90;;;;;;5033865;28;20041;-79
2022/10/24 04:35:48;;;;;;;5.25;2.08;;;14.70;99.90;;;;;;5053032;28;20518;-79
2022/10/24 04:38:14;;;;;;;5.80;2.00;;;14.70;99.90;;;;;;5052716;28;20037;-79
2022/10/24 04:40:40;;;;;;;7.63;1.98;;;14.70;99.90;;;;;;5053530;28;20037;-78
2022/10/24 04:43:05;;;;;;;6.40;2.03;;;14.70;99.90;;;;;;5053336;28;20041;-79
2022/10/24 04:45:31;;;;;;;8.05;2.00;;;14.70;99.90;;;;;;5053600;28;20037;-78
2022/10/24 04:47:56;;;;;;;7.47;2.08;;;14.60;99.90;;;;;;5052689;28;20037;-79
2022/10/24 04:50:22;;;;;;;8.85;2.00;;;14.60;99.90;;;;;;5051473;28;20376;-79
2022/10/24 04:52:47;;;;;;;7.20;2.10;;;14.50;99.90;;;;;;5052054;28;20053;-79
2022/10/24 04:55:13;;;;;;;4.22;1.80;;;14.60;99.90;;;;;;5052088;28;20033;-78
2022/10/24 04:57:38;;;;;;;6.95;2.03;;;14.60;99.90;;;;;;5051771;28;20055;-78
2022/10/24 05:00:05;;;;;;;10.73;2.45;;;14.50;99.90;;;;;;5050792;28;20044;-78
2022/10/24 05:02:30;;;;;;;4.13;2.03;;;14.50;99.90;;;;;;5051778;28;20051;-79
2022/10/24 05:04:56;;;;;;;7.72;2.28;;;14.40;99.90;;;;;;5031090;28;20119;-79
2022/10/24 05:07:21;;;;;;;7.53;2.08;;;14.40;99.90;;;;;;5050723;28;20037;-79
2022/10/24 05:09:47;;;;;;;10.30;2.35;;;14.40;99.90;;;;;;5051115;28;20037;-78
2022/10/24 05:12:13;;;;;;;7.57;2.00;;;14.50;99.90;;;;;;5051765;28;20453;-79
2022/10/24 05:14:38;;;;;;;7.13;2.30;;;14.40;99.90;;;;;;5051267;28;20418;-79
2022/10/24 05:17:04;;;;;;;5.38;2.13;;;14.40;99.90;;;;;;5047065;28;20041;-79
2022/10/24 05:19:29;;;;;;;5.35;1.92;;;14.40;99.90;;;;;;5047723;28;20037;-79
2022/10/24 05:21:55;;;;;;;6.47;1.90;;;14.30;99.90;;;;;;5049707;28;20039;-79
2022/10/24 05:24:20;;;;;;;6.85;1.77;;;14.30;99.90;;;;;;5049559;28;20041;-79
2022/10/24 05:26:46;;;;;;;5.65;2.15;;;14.20;99.90;;;;;;5047203;28;20033;-78
2022/10/24 05:29:11;;;;;;;3.85;1.70;;;14.20;99.90;;;;;;5051686;28;20412;-79
2022/10/24 05:31:37;;;;;;;7.85;2.03;;;14.20;99.90;;;;;;5051988;28;20502;-79
2022/10/24 05:34:02;;;;;;;10.63;1.85;;;14.10;99.90;;;;;;5051575;28;20122;-79
2022/10/24 05:36:28;;;;;;;3.35;1.67;;;14.20;99.90;;;;;;5050605;28;20037;-78
2022/10/24 05:38:53;;;;;;;6.03;2.17;;;14.10;99.90;;;;;;5051834;28;20544;-79
2022/10/24 05:41:19;;;;;;;5.93;2.00;;;14.10;99.90;;;;;;5049652;28;20041;-79
2022/10/24 05:43:44;;;;;;;3.95;1.80;;;14.20;99.90;;;;;;5050315;28;20045;-78
2022/10/24 05:46:10;;;;;;;6.07;1.70;;;14.10;99.90;;;;;;5045139;28;20033;-79
2022/10/24 05:48:36;;;;;;;4.90;1.90;;;14.20;99.90;;;;;;5042591;28;20517;-78
2022/10/24 05:51:02;;;;;;;6.97;1.90;;;14.20;99.90;;;;;;5008038;28;1173563;-79
2022/10/24 05:53:27;;;;;;;5.95;1.77;;;14.20;99.90;;;;;;5051177;28;20045;-78
2022/10/24 05:55:53;;;;;;;5.28;1.60;;;14.30;99.90;;;;;;5046419;28;20033;-78
2022/10/24 05:58:21;;;;;;;7.50;1.77;;;14.30;99.90;;;;;;5050979;28;20044;-78
2022/10/24 06:00:47;;;;;;;4.32;1.48;;;14.30;99.90;;;;;;5052000;28;20037;-79
2022/10/24 06:03:13;;;;;;;7.18;1.60;;;14.40;99.90;;;;;;5047018;28;20533;-78
2022/10/24 06:05:39;;;;;;;6.72;1.73;;;14.40;99.90;;;;;;5051938;28;20025;-79
2022/10/24 06:08:04;;;;;;;11.50;1.95;;;14.40;99.90;;;;;;5051037;28;20041;-81
2022/10/24 06:10:30;;;;;;;4.82;1.70;;;14.40;99.90;;;;;;5051479;28;20044;-80
2022/10/24 06:12:55;;;;;;;5.97;1.60;;;14.40;99.90;;;;;;5051843;28;20048;-78
2022/10/24 06:15:21;;;;;;;11.02;1.50;;;14.50;99.90;;;;;;5051818;28;20525;-78
2022/10/24 06:17:46;;;;;;;8.23;1.98;;;14.50;99.90;;;;;;5051961;28;20524;-79
2022/10/24 06:20:12;;;;;;;5.50;1.58;;;14.40;99.90;;;;;;5051297;28;20044;-78
2022/10/24 06:22:38;;;;;;;5.78;1.50;;;14.40;99.90;;;;;;5050014;28;20564;-79
2022/10/24 06:25:04;;;;;;;5.95;1.70;;;14.40;99.90;;;;;;5042482;28;20041;-77
2022/10/24 06:27:29;;;;;;;11.60;1.92;;;14.40;99.90;;;;;;5050748;28;20083;-79
2022/10/24 06:29:55;;;;;;;5.57;1.67;;;14.40;99.90;;;;;;5039384;28;20037;-78
2022/10/24 06:32:21;;;;;;;5.63;1.55;;;14.40;99.90;;;;;;5050766;28;20124;-76
2022/10/24 06:34:46;;;;;;;7.05;1.50;;;14.40;99.90;;;;;;5050282;28;20491;-78
2022/10/24 06:37:12;;;;;;;9.05;1.77;;;14.40;99.90;;;;;;5028787;28;20037;-78
2022/10/24 06:39:37;;;;;;;8.30;1.50;;;14.40;99.90;;;;;;5051126;28;20033;-79
2022/10/24 06:42:03;;;;;;;3.42;1.42;;;14.40;99.90;;;;;;5051144;28;20037;-79
2022/10/24 06:44:28;;;;;;;6.40;1.50;;;14.40;99.90;;;;;;5031469;28;20029;-78
2022/10/24 06:46:54;;;;;;;4.75;1.35;;;14.40;99.90;;;;;;5039812;28;20440;-79
2022/10/24 06:49:19;;;;;;;8.65;1.60;;;14.40;99.90;;;;;;5043715;28;20036;-79
2022/10/24 06:51:45;;;;;;;4.90;1.42;;;14.50;99.90;;;;;;5051272;28;20059;-78
2022/10/24 06:54:10;;;;;;;5.72;1.50;;;14.50;99.90;;;;;;5051198;28;20387;-79
2022/10/24 06:56:36;;;;;;;4.93;1.20;;;14.50;99.90;;;;;;5051381;28;20094;-78
2022/10/24 06:59:06;;;;;;;5.82;1.60;;;14.60;99.90;;;;;;5049508;28;20056;-78
2022/10/24 07:01:34;;;;;;;6.88;1.38;;;14.70;99.90;;;;;;5048839;28;20116;-77
2022/10/24 07:03:59;;;;;;;6.25;1.65;;;14.70;99.90;;;;;;5048094;28;20040;-78
2022/10/24 07:06:28;;;;;;;7.53;1.70;;;14.80;99.90;;;;;;5045680;28;20033;-78
2022/10/24 07:08:56;;;;;;;11.35;1.70;;;14.90;99.90;;;;;;5028283;28;20032;-78
2022/10/24 07:11:22;;;;;;;7.15;1.80;;;15.00;99.90;;;;;;5048306;28;20068;-79
2022/10/24 07:13:48;;;;;;;5.45;1.42;;;15.00;99.90;;;;;;5047389;28;20040;-78
2022/10/24 07:16:14;;;;;;;7.63;1.70;;;15.00;99.90;;;;;;5050017;28;20490;-77
2022/10/24 07:18:40;;;;;;;4.60;1.30;;;15.00;99.90;;;;;;5028294;28;20041;-77
2022/10/24 07:21:18;;;;;;;4.75;1.45;;;15.00;99.90;;;;;;5049541;28;20486;-77
2022/10/24 07:23:44;;;;;;;4.45;1.70;;;15.00;99.90;;;;;;5048430;28;20052;-78
2022/10/24 07:26:13;;;;;;;5.00;1.40;;;15.10;99.90;;;;;;5045149;28;20441;-78
2022/10/24 07:28:40;;;;;;;7.85;1.40;;;15.10;99.90;;;;;;5047819;28;20044;-79
2022/10/24 07:31:07;;;;;;;7.47;1.50;;;15.10;99.90;;;;;;5041106;28;20406;-79
2022/10/24 07:33:33;;;;;;;4.35;1.45;;;15.10;99.90;;;;;;5048544;28;20727;-78
2022/10/24 07:35:59;;;;;;;4.88;1.30;;;15.10;99.90;;;;;;5050328;28;20036;-77
2022/10/24 07:38:24;;;;;;;5.57;1.40;;;15.20;99.90;;;;;;5049301;28;20067;-77
2022/10/24 07:40:50;;;;;;;5.97;1.40;;;15.20;99.90;;;;;;5048804;28;20040;-78
2022/10/24 07:43:16;;;;;;;4.55;1.25;;;15.20;99.90;;;;;;5049950;28;20035;-76
2022/10/24 07:45:43;;;;;;;4.45;1.25;;;15.20;99.90;;;;;;5050471;28;20072;-77
2022/10/24 07:48:09;;;;;;;5.45;1.30;;;15.20;99.90;;;;;;5048775;28;20082;-77
2022/10/24 07:50:41;;;;;;;8.15;1.55;;;15.20;99.90;;;;;;5047391;28;20430;-77
2022/10/24 07:53:07;;;;;;;6.45;1.45;;;15.30;99.90;;;;;;5038874;28;20040;-76
2022/10/24 07:55:33;;;;;;;6.90;1.65;;;15.30;99.90;;;;;;5049095;28;20033;-78
2022/10/24 07:57:58;;;;;;;7.72;1.35;;;15.40;99.90;;;;;;5050389;28;20048;-78
2022/10/24 08:00:24;;;;;;;6.43;1.13;;;15.40;99.90;;;;;;5045326;28;20045;-77
2022/10/24 08:02:50;;;;;;;6.88;1.38;;;15.50;99.90;;;;;;5043021;28;20029;-78
2022/10/24 08:05:15;;;;;;;7.63;1.35;;;15.50;99.90;;;;;;5045658;28;20120;-78
2022/10/24 08:07:41;;;;;;;4.07;1.25;;;15.60;99.90;;;;;;5039471;28;20069;-79
2022/10/24 08:10:10;;;;;;;6.22;1.40;;;15.80;99.90;;;;;;5051271;28;20041;-78
2022/10/24 08:12:35;;;;;;;4.50;1.40;;;15.80;99.90;;;;;;5050784;28;20041;-79
2022/10/24 08:15:01;;;;;;;6.05;1.33;;;15.90;99.90;;;;;;5051218;28;20106;-79
2022/10/24 08:17:26;;;;;;;3.95;1.58;;;16.00;99.90;;;;;;5050939;28;20103;-78
2022/10/24 08:19:53;;;;;;;6.30;1.60;;;16.00;99.90;;;;;;5050925;28;20045;-80
2022/10/24 08:22:18;;;;;;;7.65;1.40;;;16.10;99.90;;;;;;5050928;28;20048;-81
2022/10/24 08:24:44;;;;;;;6.45;1.48;;;16.00;99.90;;;;;;5043584;28;20053;-78
2022/10/24 08:27:11;;;;;;;7.50;1.40;;;16.10;99.90;;;;;;5043100;28;20506;-79
2022/10/24 08:29:37;;;;;;;6.80;1.48;;;16.10;99.90;;;;;;5050057;28;20048;-80
2022/10/24 08:32:03;;;;;;;7.20;1.30;;;16.00;99.90;;;;;;5049013;28;20045;-77
2022/10/24 08:34:28;;;;;;;5.95;1.48;;;16.10;99.90;;;;;;5050704;28;20533;-78
2022/10/24 08:36:54;;;;;;;5.82;1.45;;;16.00;99.90;;;;;;5050945;28;20033;-81
2022/10/24 08:39:20;;;;;;;5.75;1.40;;;16.00;99.90;;;;;;5051215;28;20037;-81
2022/10/24 08:42:03;;;;;;;5.60;1.30;;;15.90;99.90;;;;;;5038591;28;20045;-79
2022/10/24 08:44:33;;;;;;;5.90;1.42;;;15.80;99.90;;;;;;5048974;28;20155;-78
2022/10/24 08:47:34;;;;;;;6.03;1.40;;;15.80;99.90;;;;;;5049021;28;20069;-79
2022/10/24 08:50:18;;;;;;;7.80;1.40;;;15.80;99.90;;;;;;5035784;28;20103;-78
2022/10/24 08:52:47;;;;;;;7.43;1.40;;;15.80;99.90;;;;;;5050235;28;20119;-78
2022/10/24 08:55:37;;;;;;;3.10;1.20;;;15.80;99.90;;;;;;5031420;28;20064;-78
2022/10/24 08:58:04;;;;;;;6.57;1.02;;;15.70;99.90;;;;;;5041323;28;20069;-78
2022/10/24 09:00:43;;;;;;;3.33;1.20;;;15.70;99.90;;;;;;5054348;28;20037;-79
2022/10/24 09:03:30;;;;;;;8.10;1.55;;;15.60;99.90;;;;;;5042908;28;20045;-79
2022/10/24 09:06:01;;;;;;;6.72;1.45;;;15.50;99.90;;;;;;5034959;28;20068;-79
2022/10/24 09:08:48;;;;;;;3.25;0.98;;;15.50;99.90;;;;;;5036818;28;20069;-79
2022/10/24 09:11:24;;;;;;;12.07;1.65;;;15.60;99.90;;;;;;5042151;28;20041;-78
2022/10/24 09:13:50;;;;;;;6.65;1.42;;;15.60;99.90;;;;;;5049280;28;20069;-79
2022/10/24 09:16:20;;;;;;;7.93;1.80;;;15.50;99.90;;;;;;5037319;28;20080;-80
2022/10/24 09:18:50;;;;;;;8.20;1.40;;;15.50;99.90;;;;;;5054620;28;20701;-79
2022/10/24 09:21:16;;;;;;;5.72;1.58;;;15.50;99.90;;;;;;5052993;28;20033;-79
2022/10/24 09:23:43;;;;;;;5.13;1.50;;;15.50;99.90;;;;;;5051067;28;20084;-78
2022/10/24 09:26:17;;;;;;;6.50;1.65;;;15.40;99.90;;;;;;5038059;28;20029;-80
2022/10/24 09:28:43;;;;;;;5.40;1.40;;;15.50;99.90;;;;;;5038971;28;20039;-78
2022/10/24 09:31:15;;;;;;;6.53;1.70;;;15.50;99.90;;;;;;5035975;28;20042;-79
2022/10/24 09:33:43;;;;;;;3.95;1.42;;;15.50;99.90;;;;;;5036057;28;20048;-79
2022/10/24 09:36:11;;;;;;;4.88;1.30;;;15.50;99.90;;;;;;5045002;28;20029;-79
2022/10/24 09:38:40;;;;;;;6.95;1.38;;;15.60;99.90;;;;;;5028545;28;20048;-79
2022/10/24 09:41:14;;;;;;;5.13;1.17;;;15.70;99.90;;;;;;5050956;28;20041;-79
2022/10/24 09:43:42;;;;;;;7.28;1.50;;;15.90;99.90;;;;;;5041570;28;20043;-78
2022/10/24 09:46:11;;;;;;;5.72;1.50;;;16.00;99.90;;;;;;5052441;28;20925;-80
2022/10/24 09:48:43;;;;;;;8.60;1.52;;;16.00;99.90;;;;;;5046821;28;20036;-78
2022/10/24 09:51:18;;;;;;;4.90;1.10;;;16.20;99.90;;;;;;5050437;28;20037;-78
2022/10/24 09:54:25;;;;;;;9.10;1.42;;;16.30;99.90;;;;;;5050835;28;20514;-79
2022/10/24 09:57:26;;;;;;;6.38;1.48;;;16.30;99.90;;;;;;5047181;28;20104;-79
2022/10/24 10:00:00;;;;;;;6.15;1.30;;;16.50;99.90;;;;;;5013302;28;20038;-78
2022/10/24 10:02:33;;;;;;;6.63;1.27;;;16.50;99.90;;;;;;5032664;28;20037;-76
2022/10/24 10:05:02;;;;;;;7.97;1.30;;;16.60;99.90;;;;;;5026080;28;20087;-79
2022/10/24 10:07:33;;;;;;;8.45;1.67;;;16.60;99.90;;;;;;5059576;28;20479;-80
2022/10/24 10:10:06;;;;;;;6.57;1.52;;;16.50;99.90;;;;;;5036023;28;20075;-80
2022/10/24 10:12:38;;;;;;;10.10;1.65;;;16.60;99.90;;;;;;5053578;28;20236;-79
2022/10/24 10:15:41;;;;;;;6.68;1.50;;;16.50;99.90;;;;;;5028864;28;20533;-80
2022/10/24 10:18:20;;;;;;;8.93;1.23;;;16.50;99.90;;;;;;5047056;28;20776;-80
2022/10/24 10:20:58;;;;;;;4.43;1.33;;;16.50;99.90;;;;;;5052332;28;20045;-79
2022/10/24 10:23:25;;;;;;;7.47;1.25;;;16.40;99.90;;;;;;5052722;28;20025;-79
2022/10/24 10:26:04;;;;;;;6.07;1.35;;;16.40;99.90;;;;;;5046389;28;20494;-80
2022/10/24 10:28:35;;;;;;;7.47;1.48;;;16.30;99.90;;;;;;5037249;28;20045;-79
2022/10/24 10:31:01;;;;;;;6.18;1.52;;;16.40;99.90;;;;;;5024216;28;20044;-80
2022/10/24 10:33:35;;;;;;;7.00;1.42;;;16.50;99.90;;;;;;5054523;28;20509;-78
2022/10/24 10:36:15;;;;;;;8.40;1.70;;;16.60;99.90;;;;;;5054335;28;20071;-77
2022/10/24 10:39:20;;;;;;;7.80;1.30;;;16.50;99.90;;;;;;5050825;28;20033;-79
2022/10/24 10:42:00;;;;;;;8.68;1.23;;;16.40;99.90;;;;;;5052645;28;20106;-79
2022/10/24 10:44:44;;;;;;;6.22;1.35;;;16.20;99.90;;;;;;5053585;28;20051;-80
2022/10/24 10:47:22;;;;;;;;;;;16.10;99.90;;;;;;5052300;28;20051;-80
2022/10/24 10:49:53;;;;;;;7.38;1.75;;;16.00;99.90;;;;;;5053091;28;19920;-79
2022/10/24 10:52:24;;;;;;;5.88;1.65;;;16.10;99.90;;;;;;5054566;28;20676;-79
2022/10/24 10:54:58;;;;;;;4.57;1.20;;;16.20;99.90;;;;;;5044578;28;20044;-78
2022/10/24 10:57:47;;;;;;;6.95;1.30;;;16.30;99.90;;;;;;5051919;28;20383;-80
2022/10/24 11:00:21;;;;;;;8.18;1.83;;;16.30;99.90;;;;;;5053939;28;20396;-79
2022/10/24 11:03:24;;;;;;;10.77;1.50;;;16.40;99.90;;;;;;5046926;28;20037;-79
2022/10/24 11:06:11;;;;;;;6.00;1.30;;;16.50;99.90;;;;;;5049771;28;20048;-81
2022/10/24 11:08:45;;;;;;;6.15;1.40;;;16.60;99.90;;;;;;5049787;28;20390;-80
2022/10/24 11:11:21;;;;;;;7.45;1.42;;;16.70;99.90;;;;;;5050551;28;20083;-79
2022/10/24 11:13:56;;;;;;;5.45;1.27;;;16.80;99.90;;;;;;5050762;28;20049;-79
2022/10/24 11:16:25;;;;;;;5.70;1.30;;;16.90;99.90;;;;;;5025037;28;20037;-79
2022/10/24 11:18:55;;;;;;;6.45;1.63;;;16.90;99.90;;;;;;5045040;28;20077;-79
2022/10/24 11:21:24;;;;;;;5.13;1.20;;;16.80;99.90;;;;;;5049845;28;20536;-79
2022/10/24 11:24:13;;;;;;;11.10;1.42;;;16.80;99.90;;;;;;5051494;28;20036;-79
2022/10/24 11:27:16;;;;;;;6.20;1.63;;;16.70;99.90;;;;;;5042542;28;20068;-79
2022/10/24 11:29:44;;;;;;;5.63;1.00;;;16.80;99.90;;;;;;5045035;28;20040;-80
2022/10/24 11:32:41;;;;;;;8.27;1.48;;;16.80;99.90;;;;;;5050902;28;20033;-78
2022/10/24 11:35:28;;;;;;;6.30;1.13;;;16.80;99.90;;;;;;5042131;28;20119;-79
2022/10/24 11:38:13;;;;;;;6.70;1.27;;;16.70;99.90;;;;;;5051545;28;20044;-79
2022/10/24 11:40:43;;;;;;;4.95;1.00;;;16.60;99.90;;;;;;5051204;28;20056;-80
2022/10/24 11:43:27;;;;;;;8.00;1.35;;;16.60;99.90;;;;;;5049994;28;20040;-79
2022/10/24 11:46:12;;;;;;;3.38;1.10;;;16.70;99.90;;;;;;5049350;28;20128;-80
2022/10/24 11:49:18;;;;;;;7.75;1.25;;;16.70;99.90;;;;;;5039118;28;20037;-80
2022/10/24 11:51:51;;;;;;;6.25;1.05;;;16.70;99.90;;;;;;5030889;28;20049;-79
2022/10/24 11:54:43;;;;;;;7.00;1.05;;;16.60;99.90;;;;;;5030981;28;20041;-80
2022/10/24 11:57:16;;;;;;;6.85;1.10;;;16.50;99.90;;;;;;5035066;28;20057;-79
2022/10/24 11:59:41;;;;;;;8.68;1.15;;;16.50;99.90;;;;;;5030994;28;20445;-80
2022/10/24 12:02:33;;;;;;;6.97;1.10;;;16.60;99.90;;;;;;5036900;28;20120;-79
2022/10/24 12:05:25;;;;;;;5.55;1.33;;;16.50;99.90;;;;;;5041455;28;20037;-79
2022/10/24 12:08:17;;;;;;;6.20;1.40;;;16.50;99.90;;;;;;5050062;28;20441;-78
2022/10/24 12:11:33;;;;;;;8.43;1.55;;;16.50;99.90;;;;;;5048915;28;20112;-77
2022/10/24 12:14:33;;;;;;;5.97;1.40;;;16.50;99.90;;;;;;5008054;28;20046;-75
2022/10/24 12:17:12;;;;;;;7.88;1.13;;;16.60;99.90;;;;;;5036606;28;20079;-75
2022/10/24 12:19:40;;;;;;;8.30;1.27;;;16.70;99.90;;;;;;5050452;28;20048;-78
2022/10/24 12:22:11;;;;;;;7.18;1.10;;;16.70;99.90;;;;;;5045106;28;20047;-78
2022/10/24 12:24:37;;;;;;;5.72;1.20;;;16.70;99.90;;;;;;5049574;28;20040;-78
2022/10/24 12:27:38;;;;;;;5.82;1.20;;;16.70;99.90;;;;;;5046674;28;20045;-78
2022/10/24 12:30:16;;;;;;;4.88;1.10;;;16.70;99.90;;;;;;5043372;28;20032;-77
2022/10/24 12:32:45;;;;;;;7.32;1.45;;;16.80;99.90;;;;;;5033189;28;20040;-76
2022/10/24 12:35:26;;;;;;;7.72;1.30;;;16.80;99.90;;;;;;5042440;28;20498;-77
2022/10/24 12:37:53;;;;;;;6.25;1.15;;;16.80;99.90;;;;;;5050669;28;20450;-78
2022/10/24 12:40:46;;;;;;;4.45;1.10;;;16.90;99.90;;;;;;5046710;28;20582;-78
2022/10/24 12:43:35;;;;;;;5.25;1.27;;;16.90;99.90;;;;;;5041651;28;20037;-77
2022/10/24 12:46:22;;;;;;;5.78;0.85;;;16.90;99.90;;;;;;5061597;28;20463;-77
2022/10/24 12:48:56;;;;;;;6.70;1.10;;;16.80;99.90;;;;;;5035358;28;20044;-76
2022/10/24 12:51:27;;;;;;;5.47;1.30;;;16.70;99.90;;;;;;5052501;28;20072;-78
2022/10/24 12:54:09;;;;;;;3.95;1.10;;;16.60;99.90;;;;;;5048334;28;20045;-76
2022/10/24 12:56:57;;;;;;;9.40;1.20;;;16.70;99.90;;;;;;5038747;28;20041;-78
2022/10/24 12:59:44;;;;;;;4.90;1.10;;;17.00;99.90;;;;;;5043534;28;20033;-77
2022/10/24 13:02:09;;;;;;;3.88;0.77;;;17.10;99.90;;;;;;5036209;28;20112;-77
2022/10/24 13:04:44;;;;;;;3.17;0.95;;;17.20;99.90;;;;;;5034302;28;20163;-77
2022/10/24 13:07:17;;;;;;;4.10;0.93;;;17.40;99.90;;;;;;5034220;28;20159;-79
2022/10/24 13:09:57;;;;;;;5.57;1.40;;;17.30;99.90;;;;;;5052327;28;20033;-79